Decoded Metar for SCTE (PUERTO MONTT in CHILE) (IATA:PMC) | Meteo·Mobile Aviation Weather
aviador You're here:

SCTE Decoded Metar

PUERTO MONTT in CHILE
Report Time2018-11-19 09:00:00
UTC Time2018-11-19 09:35:29
Flight Rules vfr VFR
Wind040° at 05 kt
W.Decomp.*RWY 35: 3.8 kt HW 3.3 kt RCW
W.Rank040° ranks 29
Current wind is above 040° avg. (4.7)
Visibility9999 m
Phenomena:N/A
Clouds:Scattered 024 Hf
Overcast 033 Hf
Expected CloudBase > 400 ft AGL from Temp-Dew spread
Ceiling3,300 ft
Temp11°C (ISA -3)
Dew Point10°C (94% RH)
AAT9.3°C
QNH1015 hPa
Density Alt-30 ft
Elevation282 ft
Report Wrong Elevation
Raw Report
METAR SCTE 190900Z 04005KT 9999 SCT024 OVC033 11/10 Q1015 NOSIG=

Extra information for SCTE:More info

Metar Taf Metar & Taf Last 4 Metars F.Rules Stats Wind Profile Meteogram Temp Stats Airport Information Weather charts Add Link Nearby VenuesMetar ALERT Operation Metar Decoded Social comments